sensor_id;sensor_type;location;lat;lon;timestamp;P1;durP1;ratioP1;P2;durP2;ratioP2
3875;SDS011;1953;51.222;6.624;2023-04-24T00:01:33;2.40;;;2.20;;
3875;SDS011;1953;51.222;6.624;2023-04-24T00:21:30;3.37;;;3.10;;
3875;SDS011;1953;51.222;6.624;2023-04-24T00:26:13;3.30;;;2.90;;
3875;SDS011;1953;51.222;6.624;2023-04-24T00:30:56;3.50;;;3.20;;
3875;SDS011;1953;51.222;6.624;2023-04-24T00:35:38;3.40;;;3.07;;
3875;SDS011;1953;51.222;6.624;2023-04-24T00:40:22;3.73;;;3.33;;
3875;SDS011;1953;51.222;6.624;2023-04-24T00:45:05;4.23;;;3.53;;
3875;SDS011;1953;51.222;6.624;2023-04-24T00:49:49;8.87;;;4.13;;
3875;SDS011;1953;51.222;6.624;2023-04-24T00:54:31;5.43;;;4.27;;
3875;SDS011;1953;51.222;6.624;2023-04-24T00:59:15;5.53;;;3.97;;
3875;SDS011;1953;51.222;6.624;2023-04-24T01:03:58;11.77;;;4.57;;
3875;SDS011;1953;51.222;6.624;2023-04-24T01:08:41;7.43;;;3.70;;
3875;SDS011;1953;51.222;6.624;2023-04-24T01:13:24;6.53;;;5.10;;
3875;SDS011;1953;51.222;6.624;2023-04-24T01:18:07;10.93;;;6.10;;
3875;SDS011;1953;51.222;6.624;2023-04-24T01:22:52;10.10;;;6.67;;
3875;SDS011;1953;51.222;6.624;2023-04-24T01:27:37;9.67;;;7.60;;
3875;SDS011;1953;51.222;6.624;2023-04-24T01:32:19;14.87;;;8.80;;
3875;SDS011;1953;51.222;6.624;2023-04-24T01:37:02;11.00;;;7.33;;
3875;SDS011;1953;51.222;6.624;2023-04-24T01:41:47;15.70;;;9.10;;
3875;SDS011;1953;51.222;6.624;2023-04-24T01:46:30;14.80;;;9.23;;
3875;SDS011;1953;51.222;6.624;2023-04-24T01:51:14;14.07;;;8.93;;
3875;SDS011;1953;51.222;6.624;2023-04-24T01:55:57;13.80;;;9.40;;
3875;SDS011;1953;51.222;6.624;2023-04-24T02:00:41;19.10;;;10.73;;
3875;SDS011;1953;51.222;6.624;2023-04-24T02:05:24;18.10;;;11.63;;
3875;SDS011;1953;51.222;6.624;2023-04-24T02:10:06;22.07;;;11.80;;
3875;SDS011;1953;51.222;6.624;2023-04-24T02:14:50;22.73;;;12.00;;
3875;SDS011;1953;51.222;6.624;2023-04-24T02:19:33;19.87;;;12.03;;
3875;SDS011;1953;51.222;6.624;2023-04-24T02:24:16;15.90;;;9.87;;
3875;SDS011;1953;51.222;6.624;2023-04-24T02:28:59;20.30;;;13.70;;
3875;SDS011;1953;51.222;6.624;2023-04-24T02:33:41;25.80;;;13.20;;
3875;SDS011;1953;51.222;6.624;2023-04-24T02:38:25;17.27;;;11.07;;
3875;SDS011;1953;51.222;6.624;2023-04-24T02:43:07;22.63;;;13.37;;
3875;SDS011;1953;51.222;6.624;2023-04-24T02:47:50;36.97;;;14.70;;
3875;SDS011;1953;51.222;6.624;2023-04-24T02:52:32;23.83;;;13.60;;
3875;SDS011;1953;51.222;6.624;2023-04-24T02:57:16;29.63;;;15.67;;
3875;SDS011;1953;51.222;6.624;2023-04-24T03:01:59;20.27;;;9.27;;
3875;SDS011;1953;51.222;6.624;2023-04-24T03:06:41;23.40;;;14.03;;
3875;SDS011;1953;51.222;6.624;2023-04-24T03:11:24;19.90;;;12.83;;
3875;SDS011;1953;51.222;6.624;2023-04-24T03:16:08;22.10;;;13.87;;
3875;SDS011;1953;51.222;6.624;2023-04-24T03:20:50;24.30;;;15.30;;
3875;SDS011;1953;51.222;6.624;2023-04-24T03:25:33;18.97;;;11.23;;
3875;SDS011;1953;51.222;6.624;2023-04-24T03:30:16;26.07;;;13.33;;
3875;SDS011;1953;51.222;6.624;2023-04-24T03:34:59;20.93;;;13.73;;
3875;SDS011;1953;51.222;6.624;2023-04-24T03:39:42;19.00;;;13.30;;
3875;SDS011;1953;51.222;6.624;2023-04-24T03:44:25;21.80;;;15.07;;
3875;SDS011;1953;51.222;6.624;2023-04-24T03:49:07;23.43;;;13.60;;
3875;SDS011;1953;51.222;6.624;2023-04-24T03:53:51;18.40;;;11.37;;
3875;SDS011;1953;51.222;6.624;2023-04-24T03:58:33;22.67;;;13.60;;
3875;SDS011;1953;51.222;6.624;2023-04-24T04:03:16;21.13;;;13.90;;
3875;SDS011;1953;51.222;6.624;2023-04-24T04:07:58;21.27;;;13.20;;
3875;SDS011;1953;51.222;6.624;2023-04-24T04:12:42;18.70;;;13.27;;
3875;SDS011;1953;51.222;6.624;2023-04-24T04:17:25;16.83;;;10.67;;
3875;SDS011;1953;51.222;6.624;2023-04-24T04:22:07;20.60;;;12.63;;
3875;SDS011;1953;51.222;6.624;2023-04-24T04:26:50;23.73;;;12.40;;
3875;SDS011;1953;51.222;6.624;2023-04-24T04:31:34;17.97;;;12.70;;
3875;SDS011;1953;51.222;6.624;2023-04-24T04:36:17;16.93;;;12.07;;
3875;SDS011;1953;51.222;6.624;2023-04-24T04:41:00;21.80;;;12.70;;
3875;SDS011;1953;51.222;6.624;2023-04-24T04:45:43;20.67;;;13.13;;
3875;SDS011;1953;51.222;6.624;2023-04-24T04:50:27;20.47;;;13.30;;
3875;SDS011;1953;51.222;6.624;2023-04-24T04:55:09;22.10;;;14.03;;
3875;SDS011;1953;51.222;6.624;2023-04-24T04:59:53;28.07;;;13.83;;
3875;SDS011;1953;51.222;6.624;2023-04-24T05:04:36;20.73;;;14.10;;
3875;SDS011;1953;51.222;6.624;2023-04-24T05:09:20;20.13;;;12.27;;
3875;SDS011;1953;51.222;6.624;2023-04-24T05:14:02;19.67;;;12.97;;
3875;SDS011;1953;51.222;6.624;2023-04-24T05:18:45;21.10;;;12.73;;
3875;SDS011;1953;51.222;6.624;2023-04-24T05:23:27;19.60;;;12.40;;
3875;SDS011;1953;51.222;6.624;2023-04-24T05:28:11;18.50;;;12.20;;
3875;SDS011;1953;51.222;6.624;2023-04-24T05:32:54;19.00;;;12.47;;
3875;SDS011;1953;51.222;6.624;2023-04-24T05:37:36;19.23;;;12.17;;
3875;SDS011;1953;51.222;6.624;2023-04-24T05:42:19;23.53;;;11.50;;
3875;SDS011;1953;51.222;6.624;2023-04-24T05:47:03;16.17;;;10.20;;
3875;SDS011;1953;51.222;6.624;2023-04-24T05:51:46;14.00;;;10.90;;
3875;SDS011;1953;51.222;6.624;2023-04-24T05:56:29;15.80;;;10.50;;
3875;SDS011;1953;51.222;6.624;2023-04-24T06:01:11;14.50;;;9.30;;
3875;SDS011;1953;51.222;6.624;2023-04-24T06:05:56;13.00;;;8.40;;
3875;SDS011;1953;51.222;6.624;2023-04-24T06:10:38;14.70;;;8.53;;
3875;SDS011;1953;51.222;6.624;2023-04-24T06:15:21;17.40;;;9.20;;
3875;SDS011;1953;51.222;6.624;2023-04-24T06:20:04;13.60;;;8.43;;
3875;SDS011;1953;51.222;6.624;2023-04-24T06:24:50;13.90;;;8.40;;
3875;SDS011;1953;51.222;6.624;2023-04-24T06:29:32;11.90;;;7.73;;
3875;SDS011;1953;51.222;6.624;2023-04-24T06:34:15;13.63;;;9.60;;
3875;SDS011;1953;51.222;6.624;2023-04-24T06:38:58;9.47;;;6.30;;
3875;SDS011;1953;51.222;6.624;2023-04-24T06:43:41;12.13;;;8.40;;
3875;SDS011;1953;51.222;6.624;2023-04-24T06:48:24;11.10;;;7.40;;
3875;SDS011;1953;51.222;6.624;2023-04-24T06:53:07;11.30;;;7.87;;
3875;SDS011;1953;51.222;6.624;2023-04-24T06:57:51;8.77;;;6.57;;
3875;SDS011;1953;51.222;6.624;2023-04-24T07:02:35;7.43;;;5.73;;
3875;SDS011;1953;51.222;6.624;2023-04-24T07:07:18;7.40;;;5.80;;
3875;SDS011;1953;51.222;6.624;2023-04-24T07:12:00;7.83;;;5.00;;
3875;SDS011;1953;51.222;6.624;2023-04-24T07:16:43;5.63;;;4.40;;
3875;SDS011;1953;51.222;6.624;2023-04-24T07:21:27;2.80;;;2.50;;
3875;SDS011;1953;51.222;6.624;2023-04-24T07:26:09;3.20;;;2.57;;
3875;SDS011;1953;51.222;6.624;2023-04-24T07:30:52;1.77;;;1.20;;
3875;SDS011;1953;51.222;6.624;2023-04-24T07:35:35;2.93;;;1.43;;
3875;SDS011;1953;51.222;6.624;2023-04-24T07:40:19;2.40;;;1.90;;
3875;SDS011;1953;51.222;6.624;2023-04-24T07:45:02;4.90;;;1.03;;
3875;SDS011;1953;51.222;6.624;2023-04-24T07:49:45;1.30;;;1.20;;
3875;SDS011;1953;51.222;6.624;2023-04-24T07:54:27;1.53;;;1.00;;
3875;SDS011;1953;51.222;6.624;2023-04-24T07:59:12;1.47;;;1.27;;
3875;SDS011;1953;51.222;6.624;2023-04-24T08:03:54;2.10;;;1.90;;
3875;SDS011;1953;51.222;6.624;2023-04-24T08:08:37;2.40;;;1.83;;
3875;SDS011;1953;51.222;6.624;2023-04-24T08:13:20;4.00;;;3.20;;
3875;SDS011;1953;51.222;6.624;2023-04-24T08:18:04;4.77;;;3.50;;
3875;SDS011;1953;51.222;6.624;2023-04-24T08:22:46;7.43;;;4.00;;
3875;SDS011;1953;51.222;6.624;2023-04-24T08:27:29;5.37;;;4.40;;
3875;SDS011;1953;51.222;6.624;2023-04-24T08:32:12;6.57;;;4.77;;
3875;SDS011;1953;51.222;6.624;2023-04-24T08:36:56;7.97;;;5.33;;
3875;SDS011;1953;51.222;6.624;2023-04-24T08:41:38;11.53;;;6.63;;
3875;SDS011;1953;51.222;6.624;2023-04-24T08:46:23;8.40;;;5.70;;
3875;SDS011;1953;51.222;6.624;2023-04-24T08:51:07;7.90;;;5.40;;
3875;SDS011;1953;51.222;6.624;2023-04-24T08:55:51;4.23;;;3.07;;
3875;SDS011;1953;51.222;6.624;2023-04-24T09:00:37;10.60;;;4.87;;
3875;SDS011;1953;51.222;6.624;2023-04-24T09:05:24;7.23;;;5.23;;
3875;SDS011;1953;51.222;6.624;2023-04-24T09:10:08;9.20;;;6.17;;
3875;SDS011;1953;51.222;6.624;2023-04-24T09:14:53;9.67;;;5.60;;
3875;SDS011;1953;51.222;6.624;2023-04-24T09:19:36;10.70;;;6.23;;
3875;SDS011;1953;51.222;6.624;2023-04-24T09:24:19;8.67;;;5.80;;
3875;SDS011;1953;51.222;6.624;2023-04-24T09:29:04;8.67;;;5.87;;
3875;SDS011;1953;51.222;6.624;2023-04-24T09:33:54;13.60;;;6.57;;
3875;SDS011;1953;51.222;6.624;2023-04-24T09:38:38;14.33;;;8.67;;
3875;SDS011;1953;51.222;6.624;2023-04-24T09:43:20;15.60;;;8.47;;
3875;SDS011;1953;51.222;6.624;2023-04-24T09:48:03;17.53;;;9.40;;
3875;SDS011;1953;51.222;6.624;2023-04-24T09:52:55;14.60;;;8.47;;
3875;SDS011;1953;51.222;6.624;2023-04-24T09:57:46;22.07;;;11.07;;
3875;SDS011;1953;51.222;6.624;2023-04-24T10:02:30;14.00;;;8.27;;
3875;SDS011;1953;51.222;6.624;2023-04-24T10:07:14;17.13;;;9.70;;
3875;SDS011;1953;51.222;6.624;2023-04-24T10:11:58;12.00;;;6.67;;
3875;SDS011;1953;51.222;6.624;2023-04-24T10:16:43;15.40;;;9.67;;
3875;SDS011;1953;51.222;6.624;2023-04-24T10:21:27;20.23;;;7.37;;
3875;SDS011;1953;51.222;6.624;2023-04-24T10:26:11;23.77;;;11.00;;
3875;SDS011;1953;51.222;6.624;2023-04-24T10:30:59;17.50;;;9.70;;
3875;SDS011;1953;51.222;6.624;2023-04-24T10:35:44;14.40;;;5.83;;
3875;SDS011;1953;51.222;6.624;2023-04-24T10:40:30;13.53;;;5.97;;
3875;SDS011;1953;51.222;6.624;2023-04-24T10:45:18;12.93;;;7.27;;
3875;SDS011;1953;51.222;6.624;2023-04-24T10:50:04;17.17;;;6.63;;
3875;SDS011;1953;51.222;6.624;2023-04-24T10:54:51;14.30;;;6.93;;
3875;SDS011;1953;51.222;6.624;2023-04-24T10:59:35;16.83;;;6.73;;
3875;SDS011;1953;51.222;6.624;2023-04-24T11:04:22;17.10;;;6.90;;
3875;SDS011;1953;51.222;6.624;2023-04-24T11:09:12;11.70;;;6.60;;
3875;SDS011;1953;51.222;6.624;2023-04-24T11:14:03;14.87;;;5.97;;
3875;SDS011;1953;51.222;6.624;2023-04-24T11:18:50;13.43;;;5.90;;
3875;SDS011;1953;51.222;6.624;2023-04-24T11:23:35;18.87;;;6.47;;
3875;SDS011;1953;51.222;6.624;2023-04-24T11:28:20;14.50;;;5.83;;
3875;SDS011;1953;51.222;6.624;2023-04-24T11:33:06;10.70;;;5.03;;
3875;SDS011;1953;51.222;6.624;2023-04-24T11:37:49;8.40;;;5.70;;
3875;SDS011;1953;51.222;6.624;2023-04-24T11:42:35;12.10;;;5.13;;
3875;SDS011;1953;51.222;6.624;2023-04-24T11:47:20;13.90;;;5.80;;
3875;SDS011;1953;51.222;6.624;2023-04-24T11:52:10;14.60;;;5.90;;
3875;SDS011;1953;51.222;6.624;2023-04-24T11:56:57;15.80;;;5.90;;
3875;SDS011;1953;51.222;6.624;2023-04-24T12:01:42;11.30;;;5.60;;
3875;SDS011;1953;51.222;6.624;2023-04-24T12:06:27;10.83;;;5.50;;
3875;SDS011;1953;51.222;6.624;2023-04-24T12:12:06;6.80;;;4.83;;
3875;SDS011;1953;51.222;6.624;2023-04-24T12:16:49;8.77;;;4.00;;
3875;SDS011;1953;51.222;6.624;2023-04-24T12:21:32;7.63;;;2.87;;
3875;SDS011;1953;51.222;6.624;2023-04-24T12:26:17;5.13;;;2.77;;
3875;SDS011;1953;51.222;6.624;2023-04-24T12:31:02;10.00;;;3.00;;
3875;SDS011;1953;51.222;6.624;2023-04-24T12:35:45;3.40;;;2.60;;
3875;SDS011;1953;51.222;6.624;2023-04-24T12:40:27;2.87;;;2.10;;
3875;SDS011;1953;51.222;6.624;2023-04-24T12:45:12;3.20;;;1.70;;
3875;SDS011;1953;51.222;6.624;2023-04-24T12:49:57;6.10;;;2.77;;
3875;SDS011;1953;51.222;6.624;2023-04-24T12:54:39;3.57;;;2.57;;
3875;SDS011;1953;51.222;6.624;2023-04-24T12:59:22;5.83;;;3.07;;
3875;SDS011;1953;51.222;6.624;2023-04-24T13:04:05;4.70;;;2.70;;
3875;SDS011;1953;51.222;6.624;2023-04-24T13:08:49;5.07;;;2.20;;
3875;SDS011;1953;51.222;6.624;2023-04-24T13:13:32;2.97;;;2.20;;
3875;SDS011;1953;51.222;6.624;2023-04-24T13:18:14;2.60;;;2.40;;
3875;SDS011;1953;51.222;6.624;2023-04-24T13:22:57;4.30;;;2.30;;
3875;SDS011;1953;51.222;6.624;2023-04-24T13:27:41;4.97;;;2.80;;
3875;SDS011;1953;51.222;6.624;2023-04-24T13:32:23;3.10;;;2.10;;
3875;SDS011;1953;51.222;6.624;2023-04-24T13:37:06;3.60;;;2.60;;
3875;SDS011;1953;51.222;6.624;2023-04-24T13:41:48;8.87;;;2.57;;
3875;SDS011;1953;51.222;6.624;2023-04-24T13:46:32;5.23;;;2.60;;
3875;SDS011;1953;51.222;6.624;2023-04-24T13:51:15;5.50;;;3.10;;
3875;SDS011;1953;51.222;6.624;2023-04-24T13:55:57;6.70;;;3.70;;
3875;SDS011;1953;51.222;6.624;2023-04-24T14:00:40;10.03;;;3.03;;
3875;SDS011;1953;51.222;6.624;2023-04-24T14:05:24;8.03;;;3.07;;
3875;SDS011;1953;51.222;6.624;2023-04-24T14:10:07;2.83;;;2.63;;
3875;SDS011;1953;51.222;6.624;2023-04-24T14:14:50;5.00;;;3.13;;
3875;SDS011;1953;51.222;6.624;2023-04-24T14:19:32;3.10;;;2.70;;
3875;SDS011;1953;51.222;6.624;2023-04-24T14:24:16;2.80;;;2.47;;
3875;SDS011;1953;51.222;6.624;2023-04-24T14:28:59;3.70;;;3.00;;
3875;SDS011;1953;51.222;6.624;2023-04-24T14:33:41;3.17;;;2.37;;
3875;SDS011;1953;51.222;6.624;2023-04-24T14:38:24;5.83;;;2.67;;
3875;SDS011;1953;51.222;6.624;2023-04-24T14:43:08;5.93;;;2.80;;
3875;SDS011;1953;51.222;6.624;2023-04-24T14:47:51;6.20;;;3.40;;
3875;SDS011;1953;51.222;6.624;2023-04-24T14:52:34;3.13;;;2.57;;
3875;SDS011;1953;51.222;6.624;2023-04-24T14:57:16;6.10;;;2.70;;
3875;SDS011;1953;51.222;6.624;2023-04-24T15:02:00;2.80;;;2.60;;
3875;SDS011;1953;51.222;6.624;2023-04-24T15:06:43;4.33;;;2.67;;
3875;SDS011;1953;51.222;6.624;2023-04-24T15:11:25;4.57;;;2.70;;
3875;SDS011;1953;51.222;6.624;2023-04-24T15:16:08;3.40;;;3.10;;
3875;SDS011;1953;51.222;6.624;2023-04-24T15:20:52;5.90;;;3.43;;
3875;SDS011;1953;51.222;6.624;2023-04-24T15:25:35;3.77;;;3.47;;
3875;SDS011;1953;51.222;6.624;2023-04-24T15:30:18;4.83;;;3.60;;
3875;SDS011;1953;51.222;6.624;2023-04-24T15:35:01;5.57;;;3.17;;
3875;SDS011;1953;51.222;6.624;2023-04-24T15:39:45;3.53;;;2.87;;
3875;SDS011;1953;51.222;6.624;2023-04-24T15:44:28;9.50;;;3.77;;
3875;SDS011;1953;51.222;6.624;2023-04-24T15:49:10;3.27;;;2.90;;
3875;SDS011;1953;51.222;6.624;2023-04-24T15:53:53;5.63;;;3.20;;
3875;SDS011;1953;51.222;6.624;2023-04-24T15:58:37;6.60;;;3.30;;
3875;SDS011;1953;51.222;6.624;2023-04-24T16:03:19;5.10;;;3.30;;
3875;SDS011;1953;51.222;6.624;2023-04-24T16:08:02;3.70;;;3.40;;
3875;SDS011;1953;51.222;6.624;2023-04-24T16:12:44;4.30;;;3.47;;
3875;SDS011;1953;51.222;6.624;2023-04-24T16:17:28;5.40;;;2.90;;
3875;SDS011;1953;51.222;6.624;2023-04-24T16:22:11;4.27;;;2.77;;
3875;SDS011;1953;51.222;6.624;2023-04-24T16:26:54;3.47;;;3.13;;
3875;SDS011;1953;51.222;6.624;2023-04-24T16:31:37;5.70;;;3.80;;
3875;SDS011;1953;51.222;6.624;2023-04-24T16:36:21;3.93;;;3.53;;
3875;SDS011;1953;51.222;6.624;2023-04-24T16:41:03;7.00;;;4.00;;
3875;SDS011;1953;51.222;6.624;2023-04-24T16:45:46;10.63;;;3.87;;
3875;SDS011;1953;51.222;6.624;2023-04-24T16:50:29;4.07;;;3.20;;
3875;SDS011;1953;51.222;6.624;2023-04-24T16:55:14;5.10;;;3.60;;
3875;SDS011;1953;51.222;6.624;2023-04-24T16:59:56;7.53;;;3.30;;
3875;SDS011;1953;51.222;6.624;2023-04-24T17:04:39;8.17;;;3.10;;
3875;SDS011;1953;51.222;6.624;2023-04-24T17:09:21;5.50;;;3.40;;
3875;SDS011;1953;51.222;6.624;2023-04-24T17:14:05;4.67;;;3.10;;
3875;SDS011;1953;51.222;6.624;2023-04-24T17:18:48;5.10;;;3.77;;
3875;SDS011;1953;51.222;6.624;2023-04-24T17:23:31;4.80;;;3.10;;
3875;SDS011;1953;51.222;6.624;2023-04-24T17:28:14;4.70;;;3.20;;
3875;SDS011;1953;51.222;6.624;2023-04-24T17:33:07;3.33;;;2.63;;
3875;SDS011;1953;51.222;6.624;2023-04-24T17:37:49;4.97;;;3.27;;
3875;SDS011;1953;51.222;6.624;2023-04-24T17:42:32;4.00;;;2.80;;
3875;SDS011;1953;51.222;6.624;2023-04-24T17:47:16;8.43;;;3.27;;
3875;SDS011;1953;51.222;6.624;2023-04-24T17:52:01;5.80;;;3.20;;
3875;SDS011;1953;51.222;6.624;2023-04-24T17:56:43;6.13;;;3.37;;
3875;SDS011;1953;51.222;6.624;2023-04-24T18:01:26;4.33;;;3.27;;
3875;SDS011;1953;51.222;6.624;2023-04-24T18:06:09;5.33;;;3.57;;
3875;SDS011;1953;51.222;6.624;2023-04-24T18:10:53;6.53;;;3.90;;
3875;SDS011;1953;51.222;6.624;2023-04-24T18:15:35;6.60;;;3.60;;
3875;SDS011;1953;51.222;6.624;2023-04-24T18:20:21;6.13;;;4.23;;
3875;SDS011;1953;51.222;6.624;2023-04-24T18:25:04;5.53;;;3.90;;
3875;SDS011;1953;51.222;6.624;2023-04-24T18:29:49;10.10;;;3.60;;
3875;SDS011;1953;51.222;6.624;2023-04-24T18:34:32;12.10;;;4.20;;
3875;SDS011;1953;51.222;6.624;2023-04-24T18:39:14;6.47;;;4.07;;
3875;SDS011;1953;51.222;6.624;2023-04-24T18:43:57;6.40;;;4.60;;
3875;SDS011;1953;51.222;6.624;2023-04-24T18:48:41;7.03;;;4.70;;
3875;SDS011;1953;51.222;6.624;2023-04-24T18:53:23;8.77;;;5.00;;
3875;SDS011;1953;51.222;6.624;2023-04-24T18:58:06;10.57;;;5.20;;
3875;SDS011;1953;51.222;6.624;2023-04-24T19:02:49;8.20;;;4.80;;
3875;SDS011;1953;51.222;6.624;2023-04-24T19:07:33;10.97;;;4.90;;
3875;SDS011;1953;51.222;6.624;2023-04-24T19:12:15;9.60;;;4.53;;
3875;SDS011;1953;51.222;6.624;2023-04-24T19:16:58;8.07;;;4.40;;
3875;SDS011;1953;51.222;6.624;2023-04-24T19:21:41;7.97;;;5.00;;
3875;SDS011;1953;51.222;6.624;2023-04-24T19:26:25;15.37;;;5.20;;
3875;SDS011;1953;51.222;6.624;2023-04-24T19:31:07;8.67;;;5.23;;
3875;SDS011;1953;51.222;6.624;2023-04-24T19:35:50;8.53;;;5.23;;
3875;SDS011;1953;51.222;6.624;2023-04-24T19:40:33;8.90;;;6.03;;
3875;SDS011;1953;51.222;6.624;2023-04-24T19:45:17;9.20;;;5.90;;
3875;SDS011;1953;51.222;6.624;2023-04-24T19:49:59;10.00;;;6.07;;
3875;SDS011;1953;51.222;6.624;2023-04-24T19:54:42;7.93;;;4.63;;
3875;SDS011;1953;51.222;6.624;2023-04-24T19:59:24;11.20;;;4.60;;
3875;SDS011;1953;51.222;6.624;2023-04-24T20:04:08;7.60;;;4.90;;
3875;SDS011;1953;51.222;6.624;2023-04-24T20:08:51;12.10;;;5.20;;
3875;SDS011;1953;51.222;6.624;2023-04-24T20:13:33;10.97;;;5.00;;
3875;SDS011;1953;51.222;6.624;2023-04-24T20:18:16;8.13;;;4.80;;
3875;SDS011;1953;51.222;6.624;2023-04-24T20:23:00;9.10;;;5.07;;
3875;SDS011;1953;51.222;6.624;2023-04-24T20:27:42;8.93;;;4.50;;
3875;SDS011;1953;51.222;6.624;2023-04-24T20:32:25;12.10;;;5.10;;
3875;SDS011;1953;51.222;6.624;2023-04-24T20:37:07;8.97;;;5.47;;
3875;SDS011;1953;51.222;6.624;2023-04-24T20:41:51;9.67;;;5.13;;
3875;SDS011;1953;51.222;6.624;2023-04-24T20:46:33;8.83;;;5.13;;
3875;SDS011;1953;51.222;6.624;2023-04-24T20:51:16;11.40;;;4.90;;
3875;SDS011;1953;51.222;6.624;2023-04-24T20:55:59;8.70;;;5.03;;
3875;SDS011;1953;51.222;6.624;2023-04-24T21:00:43;9.27;;;5.13;;
3875;SDS011;1953;51.222;6.624;2023-04-24T21:05:26;11.40;;;5.17;;
3875;SDS011;1953;51.222;6.624;2023-04-24T21:10:09;13.30;;;5.70;;
3875;SDS011;1953;51.222;6.624;2023-04-24T21:14:52;9.10;;;5.60;;
3875;SDS011;1953;51.222;6.624;2023-04-24T21:19:36;10.07;;;4.97;;
3875;SDS011;1953;51.222;6.624;2023-04-24T21:24:19;14.60;;;5.80;;
3875;SDS011;1953;51.222;6.624;2023-04-24T21:29:02;13.87;;;5.60;;
3875;SDS011;1953;51.222;6.624;2023-04-24T21:33:44;9.00;;;5.50;;
3875;SDS011;1953;51.222;6.624;2023-04-24T21:38:28;11.87;;;5.80;;
3875;SDS011;1953;51.222;6.624;2023-04-24T21:43:11;12.60;;;5.73;;
3875;SDS011;1953;51.222;6.624;2023-04-24T21:47:53;11.13;;;5.80;;
3875;SDS011;1953;51.222;6.624;2023-04-24T21:52:36;17.30;;;6.97;;
3875;SDS011;1953;51.222;6.624;2023-04-24T21:57:20;14.10;;;5.47;;
3875;SDS011;1953;51.222;6.624;2023-04-24T22:02:02;13.60;;;5.97;;
3875;SDS011;1953;51.222;6.624;2023-04-24T22:06:45;11.70;;;5.80;;
3875;SDS011;1953;51.222;6.624;2023-04-24T22:11:28;12.03;;;5.57;;
3875;SDS011;1953;51.222;6.624;2023-04-24T22:16:12;12.63;;;6.57;;
3875;SDS011;1953;51.222;6.624;2023-04-24T22:20:54;16.13;;;6.40;;
3875;SDS011;1953;51.222;6.624;2023-04-24T22:25:38;25.30;;;6.80;;
3875;SDS011;1953;51.222;6.624;2023-04-24T22:30:20;15.17;;;6.40;;
3875;SDS011;1953;51.222;6.624;2023-04-24T22:35:04;18.03;;;6.43;;
3875;SDS011;1953;51.222;6.624;2023-04-24T22:39:47;16.27;;;7.00;;
3875;SDS011;1953;51.222;6.624;2023-04-24T22:44:30;17.20;;;7.70;;
3875;SDS011;1953;51.222;6.624;2023-04-24T22:49:12;21.40;;;7.57;;
3875;SDS011;1953;51.222;6.624;2023-04-24T22:53:57;12.70;;;6.67;;
3875;SDS011;1953;51.222;6.624;2023-04-24T22:58:39;18.80;;;6.87;;
3875;SDS011;1953;51.222;6.624;2023-04-24T23:03:22;12.17;;;6.13;;
3875;SDS011;1953;51.222;6.624;2023-04-24T23:08:04;22.27;;;7.77;;
3875;SDS011;1953;51.222;6.624;2023-04-24T23:12:48;16.77;;;6.37;;
3875;SDS011;1953;51.222;6.624;2023-04-24T23:17:31;20.83;;;6.67;;
3875;SDS011;1953;51.222;6.624;2023-04-24T23:22:13;15.77;;;7.30;;
3875;SDS011;1953;51.222;6.624;2023-04-24T23:26:55;13.70;;;6.10;;
3875;SDS011;1953;51.222;6.624;2023-04-24T23:31:39;17.30;;;6.60;;
3875;SDS011;1953;51.222;6.624;2023-04-24T23:36:22;22.93;;;7.07;;
3875;SDS011;1953;51.222;6.624;2023-04-24T23:41:04;13.67;;;6.40;;
3875;SDS011;1953;51.222;6.624;2023-04-24T23:45:47;14.70;;;6.90;;
3875;SDS011;1953;51.222;6.624;2023-04-24T23:50:30;20.40;;;6.20;;
3875;SDS011;1953;51.222;6.624;2023-04-24T23:55:13;26.27;;;7.27;;
3875;SDS011;1953;51.222;6.624;2023-04-24T23:59:56;15.97;;;7.47;;
